KMLB

Melbourne International Airport

Melbourne, Florida, USA
METAR KMLB 170253Z 13005KT 10SM FEW019 28/24 A3012 RMK AO2 SLP199 T02780239 51010
Observed Flight Rules
Oct-17 @ 02:53 UTC (16 minutes ago) Visual Flight Rules
Wind Visibility Clouds
130° at 5 knots 10 miles
  • Few at 1,900' AGL
Temperatures Readings
Current 28°C / 82°F
Dewpoint 24°C / 75°F
Humidity 79%
Altimeter 30.12" Hg
Pressure 1019.9 hPa
Elevation 11
METAR KMLB 170253Z 13005KT 10SM FEW019 28/24 A3012 RMK AO2 SLP199 T02780239 51010
Observed Flight Rules
Oct-17 @ 02:53 UTC
(16 minutes ago)
VFR
Wind Visibility
130° at 5 knots 10 miles
Clouds
  • Few at 1,900' AGL
Temperature Dewpoint
28°C / 82°F 24°C / 75°F
Humidity Altimeter Pressure
79% 30.12" Hg 1019.9 hPa